sensor_id;sensor_type;location;lat;lon;timestamp;pressure;altitude;pressure_sealevel;temperature;humidity
45541;BME280;31265;49.680;8.608;2023-04-21T00:00:23;100250.38;;;5.59;100.00
45541;BME280;31265;49.680;8.608;2023-04-21T00:02:56;100247.50;;;5.51;100.00
45541;BME280;31265;49.680;8.608;2023-04-21T00:05:26;100246.16;;;5.45;100.00
45541;BME280;31265;49.680;8.608;2023-04-21T00:07:55;100244.47;;;5.42;100.00
45541;BME280;31265;49.680;8.608;2023-04-21T00:10:25;100252.16;;;5.30;100.00
45541;BME280;31265;49.680;8.608;2023-04-21T00:12:54;100247.28;;;5.23;100.00
45541;BME280;31265;49.680;8.608;2023-04-21T00:15:22;100244.47;;;5.09;100.00
45541;BME280;31265;49.680;8.608;2023-04-21T00:17:53;100244.28;;;5.07;100.00
45541;BME280;31265;49.680;8.608;2023-04-21T00:20:21;100236.72;;;4.94;100.00
45541;BME280;31265;49.680;8.608;2023-04-21T00:22:52;100242.31;;;4.89;100.00
45541;BME280;31265;49.680;8.608;2023-04-21T00:25:25;100240.41;;;4.84;100.00
45541;BME280;31265;49.680;8.608;2023-04-21T00:27:54;100231.06;;;4.73;100.00
45541;BME280;31265;49.680;8.608;2023-04-21T00:30:22;100242.06;;;4.73;100.00
45541;BME280;31265;49.680;8.608;2023-04-21T00:32:51;100245.50;;;4.61;100.00
45541;BME280;31265;49.680;8.608;2023-04-21T00:35:21;100233.94;;;4.49;100.00
45541;BME280;31265;49.680;8.608;2023-04-21T00:37:49;100233.50;;;4.45;100.00
45541;BME280;31265;49.680;8.608;2023-04-21T00:40:18;100234.31;;;4.40;100.00
45541;BME280;31265;49.680;8.608;2023-04-21T00:42:49;100236.84;;;4.38;100.00
45541;BME280;31265;49.680;8.608;2023-04-21T00:45:18;100241.69;;;4.31;100.00
45541;BME280;31265;49.680;8.608;2023-04-21T00:47:46;100240.19;;;4.30;100.00
45541;BME280;31265;49.680;8.608;2023-04-21T00:50:16;100236.50;;;4.28;100.00
45541;BME280;31265;49.680;8.608;2023-04-21T00:52:45;100239.75;;;4.26;100.00
45541;BME280;31265;49.680;8.608;2023-04-21T00:55:14;100239.97;;;4.28;100.00
45541;BME280;31265;49.680;8.608;2023-04-21T00:57:46;100232.78;;;4.25;100.00
45541;BME280;31265;49.680;8.608;2023-04-21T01:00:17;100236.84;;;4.38;100.00
45541;BME280;31265;49.680;8.608;2023-04-21T01:02:47;100236.19;;;4.31;100.00
45541;BME280;31265;49.680;8.608;2023-04-21T01:05:16;100234.56;;;4.23;100.00
45541;BME280;31265;49.680;8.608;2023-04-21T01:07:45;100230.81;;;4.20;100.00
45541;BME280;31265;49.680;8.608;2023-04-21T01:10:14;100228.91;;;4.15;100.00
45541;BME280;31265;49.680;8.608;2023-04-21T01:12:46;100232.91;;;4.14;100.00
45541;BME280;31265;49.680;8.608;2023-04-21T01:15:16;100231.97;;;4.12;100.00
45541;BME280;31265;49.680;8.608;2023-04-21T01:17:45;100232.25;;;4.08;100.00
45541;BME280;31265;49.680;8.608;2023-04-21T01:20:13;100230.75;;;4.07;100.00
45541;BME280;31265;49.680;8.608;2023-04-21T01:22:44;100224.31;;;4.04;100.00
45541;BME280;31265;49.680;8.608;2023-04-21T01:25:13;100225.03;;;4.05;100.00
45541;BME280;31265;49.680;8.608;2023-04-21T01:27:41;100223.56;;;4.04;100.00
45541;BME280;31265;49.680;8.608;2023-04-21T01:30:10;100226.53;;;4.06;100.00
45541;BME280;31265;49.680;8.608;2023-04-21T01:32:39;100221.78;;;4.06;100.00
45541;BME280;31265;49.680;8.608;2023-04-21T01:35:08;100217.78;;;4.07;100.00
45541;BME280;31265;49.680;8.608;2023-04-21T01:37:38;100225.50;;;4.09;100.00
45541;BME280;31265;49.680;8.608;2023-04-21T01:40:10;100228.00;;;4.07;100.00
45541;BME280;31265;49.680;8.608;2023-04-21T01:42:40;100231.00;;;4.09;100.00
45541;BME280;31265;49.680;8.608;2023-04-21T01:45:10;100226.25;;;4.09;100.00
45541;BME280;31265;49.680;8.608;2023-04-21T01:47:38;100222.97;;;4.11;100.00
45541;BME280;31265;49.680;8.608;2023-04-21T01:50:07;100232.63;;;4.18;100.00
45541;BME280;31265;49.680;8.608;2023-04-21T01:52:40;100224.91;;;4.16;100.00
45541;BME280;31265;49.680;8.608;2023-04-21T01:55:10;100228.09;;;4.20;100.00
45541;BME280;31265;49.680;8.608;2023-04-21T01:57:40;100229.66;;;4.16;100.00
45541;BME280;31265;49.680;8.608;2023-04-21T02:00:12;100223.22;;;4.13;100.00
45541;BME280;31265;49.680;8.608;2023-04-21T02:02:40;100225.19;;;4.13;100.00
45541;BME280;31265;49.680;8.608;2023-04-21T02:05:13;100214.44;;;4.15;100.00
45541;BME280;31265;49.680;8.608;2023-04-21T02:07:41;100220.88;;;4.17;100.00
45541;BME280;31265;49.680;8.608;2023-04-21T02:10:11;100220.88;;;4.17;100.00
45541;BME280;31265;49.680;8.608;2023-04-21T02:12:42;100222.66;;;4.15;100.00
45541;BME280;31265;49.680;8.608;2023-04-21T02:15:11;100232.19;;;4.14;100.00
45541;BME280;31265;49.680;8.608;2023-04-21T02:17:39;100228.00;;;4.07;100.00
45541;BME280;31265;49.680;8.608;2023-04-21T02:20:11;100230.31;;;4.03;100.00
45541;BME280;31265;49.680;8.608;2023-04-21T02:22:40;100228.59;;;4.00;100.00
45541;BME280;31265;49.680;8.608;2023-04-21T02:25:13;100225.34;;;4.01;100.00
45541;BME280;31265;49.680;8.608;2023-04-21T02:27:41;100231.88;;;3.98;100.00
45541;BME280;31265;49.680;8.608;2023-04-21T02:30:10;100232.63;;;3.99;100.00
45541;BME280;31265;49.680;8.608;2023-04-21T02:32:41;100243.38;;;3.97;100.00
45541;BME280;31265;49.680;8.608;2023-04-21T02:35:10;100245.88;;;3.95;100.00
45541;BME280;31265;49.680;8.608;2023-04-21T02:37:39;100245.66;;;3.93;100.00
45541;BME280;31265;49.680;8.608;2023-04-21T02:40:09;100244.41;;;3.94;100.00
45541;BME280;31265;49.680;8.608;2023-04-21T02:42:42;100242.69;;;3.91;100.00
45541;BME280;31265;49.680;8.608;2023-04-21T02:45:11;100240.00;;;3.85;100.00
45541;BME280;31265;49.680;8.608;2023-04-21T02:47:39;100235.84;;;3.78;100.00
45541;BME280;31265;49.680;8.608;2023-04-21T02:50:09;100245.69;;;3.68;100.00
45541;BME280;31265;49.680;8.608;2023-04-21T02:52:40;100246.25;;;3.61;100.00
45541;BME280;31265;49.680;8.608;2023-04-21T02:55:10;100242.63;;;3.53;100.00
45541;BME280;31265;49.680;8.608;2023-04-21T02:57:40;100234.44;;;3.47;100.00
45541;BME280;31265;49.680;8.608;2023-04-21T03:00:12;100242.75;;;3.41;100.00
45541;BME280;31265;49.680;8.608;2023-04-21T03:02:42;100246.47;;;3.44;100.00
45541;BME280;31265;49.680;8.608;2023-04-21T03:05:11;100248.97;;;3.42;100.00
45541;BME280;31265;49.680;8.608;2023-04-21T03:07:39;100249.47;;;3.40;100.00
45541;BME280;31265;49.680;8.608;2023-04-21T03:10:11;100237.59;;;3.32;100.00
45541;BME280;31265;49.680;8.608;2023-04-21T03:12:39;100244.13;;;3.29;100.00
45541;BME280;31265;49.680;8.608;2023-04-21T03:15:08;100241.81;;;3.33;100.00
45541;BME280;31265;49.680;8.608;2023-04-21T03:17:38;100247.53;;;3.35;100.00
45541;BME280;31265;49.680;8.608;2023-04-21T03:20:09;100247.34;;;3.28;100.00
45541;BME280;31265;49.680;8.608;2023-04-21T03:22:39;100238.22;;;3.19;100.00
45541;BME280;31265;49.680;8.608;2023-04-21T03:25:07;100239.75;;;3.15;100.00
45541;BME280;31265;49.680;8.608;2023-04-21T03:27:36;100242.75;;;3.11;100.00
45541;BME280;31265;49.680;8.608;2023-04-21T03:30:06;100226.59;;;3.08;100.00
45541;BME280;31265;49.680;8.608;2023-04-21T03:32:34;100234.34;;;3.04;100.00
45541;BME280;31265;49.680;8.608;2023-04-21T03:35:06;100231.16;;;2.99;100.00
45541;BME280;31265;49.680;8.608;2023-04-21T03:37:35;100227.44;;;2.97;100.00
45541;BME280;31265;49.680;8.608;2023-04-21T03:40:06;100226.97;;;2.93;100.00
45541;BME280;31265;49.680;8.608;2023-04-21T03:42:37;100232.97;;;2.91;100.00
45541;BME280;31265;49.680;8.608;2023-04-21T03:45:07;100227.25;;;2.89;100.00
45541;BME280;31265;49.680;8.608;2023-04-21T03:47:38;100230.41;;;2.99;100.00
45541;BME280;31265;49.680;8.608;2023-04-21T03:50:08;100230.47;;;2.93;100.00
45541;BME280;31265;49.680;8.608;2023-04-21T03:52:37;100234.47;;;2.92;100.00
45541;BME280;31265;49.680;8.608;2023-04-21T03:55:05;100244.72;;;2.86;100.00
45541;BME280;31265;49.680;8.608;2023-04-21T03:57:38;100237.03;;;2.85;100.00
45541;BME280;31265;49.680;8.608;2023-04-21T04:00:09;100239.78;;;2.79;100.00
45541;BME280;31265;49.680;8.608;2023-04-21T04:02:40;100234.81;;;2.77;100.00
45541;BME280;31265;49.680;8.608;2023-04-21T04:05:11;100239.09;;;2.73;100.00
45541;BME280;31265;49.680;8.608;2023-04-21T04:07:39;100235.88;;;2.69;100.00
45541;BME280;31265;49.680;8.608;2023-04-21T04:10:08;100235.19;;;2.57;100.00
45541;BME280;31265;49.680;8.608;2023-04-21T04:12:37;100235.72;;;2.55;100.00
45541;BME280;31265;49.680;8.608;2023-04-21T04:15:06;100230.00;;;2.53;100.00
45541;BME280;31265;49.680;8.608;2023-04-21T04:17:35;100226.84;;;2.44;100.00
45541;BME280;31265;49.680;8.608;2023-04-21T04:20:05;100224.84;;;2.44;100.00
45541;BME280;31265;49.680;8.608;2023-04-21T04:22:35;100226.53;;;2.47;100.00
45541;BME280;31265;49.680;8.608;2023-04-21T04:25:05;100229.78;;;2.51;100.00
45541;BME280;31265;49.680;8.608;2023-04-21T04:27:35;100245.25;;;2.43;100.00
45541;BME280;31265;49.680;8.608;2023-04-21T04:30:08;100238.81;;;2.41;100.00
45541;BME280;31265;49.680;8.608;2023-04-21T04:32:37;100234.06;;;2.41;100.00
45541;BME280;31265;49.680;8.608;2023-04-21T04:35:08;100239.75;;;2.49;100.00
45541;BME280;31265;49.680;8.608;2023-04-21T04:37:40;100240.69;;;2.57;100.00
45541;BME280;31265;49.680;8.608;2023-04-21T04:40:09;100233.00;;;2.55;100.00
45541;BME280;31265;49.680;8.608;2023-04-21T04:42:38;100247.47;;;2.50;100.00
45541;BME280;31265;49.680;8.608;2023-04-21T04:45:08;100238.53;;;2.44;100.00
45541;BME280;31265;49.680;8.608;2023-04-21T04:47:37;100239.53;;;2.41;100.00
45541;BME280;31265;49.680;8.608;2023-04-21T04:50:10;100248.00;;;2.43;100.00
45541;BME280;31265;49.680;8.608;2023-04-21T04:52:39;100244.75;;;2.45;100.00
45541;BME280;31265;49.680;8.608;2023-04-21T04:55:11;100242.00;;;2.45;100.00
45541;BME280;31265;49.680;8.608;2023-04-21T04:57:42;100248.97;;;2.46;100.00
45541;BME280;31265;49.680;8.608;2023-04-21T05:00:11;100235.78;;;2.50;100.00
45541;BME280;31265;49.680;8.608;2023-04-21T05:02:45;100235.72;;;2.55;100.00
45541;BME280;31265;49.680;8.608;2023-04-21T05:05:14;100243.16;;;2.61;100.00
45541;BME280;31265;49.680;8.608;2023-04-21T05:07:43;100233.19;;;2.63;100.00
45541;BME280;31265;49.680;8.608;2023-04-21T05:10:14;100228.91;;;2.68;100.00
45541;BME280;31265;49.680;8.608;2023-04-21T05:12:43;100235.09;;;2.74;100.00
45541;BME280;31265;49.680;8.608;2023-04-21T05:15:11;100245.75;;;2.83;100.00
45541;BME280;31265;49.680;8.608;2023-04-21T05:17:42;100246.47;;;2.84;100.00
45541;BME280;31265;49.680;8.608;2023-04-21T05:20:11;100257.19;;;2.87;100.00
45541;BME280;31265;49.680;8.608;2023-04-21T05:22:40;100262.59;;;2.93;100.00
45541;BME280;31265;49.680;8.608;2023-04-21T05:25:10;100258.28;;;3.03;100.00
45541;BME280;31265;49.680;8.608;2023-04-21T05:27:42;100254.69;;;3.14;100.00
45541;BME280;31265;49.680;8.608;2023-04-21T05:30:11;100254.84;;;3.27;100.00
45541;BME280;31265;49.680;8.608;2023-04-21T05:32:39;100256.47;;;3.41;100.00
45541;BME280;31265;49.680;8.608;2023-04-21T05:35:08;100253.81;;;3.55;100.00
45541;BME280;31265;49.680;8.608;2023-04-21T05:37:36;100251.41;;;3.70;100.00
45541;BME280;31265;49.680;8.608;2023-04-21T05:40:06;100251.72;;;3.85;100.00
45541;BME280;31265;49.680;8.608;2023-04-21T05:42:36;100250.56;;;4.00;100.00
45541;BME280;31265;49.680;8.608;2023-04-21T05:45:05;100247.69;;;4.11;100.00
45541;BME280;31265;49.680;8.608;2023-04-21T05:47:34;100248.66;;;4.14;100.00
45541;BME280;31265;49.680;8.608;2023-04-21T05:50:03;100255.34;;;4.18;100.00
45541;BME280;31265;49.680;8.608;2023-04-21T05:52:32;100240.50;;;4.08;100.00
45541;BME280;31265;49.680;8.608;2023-04-21T05:55:03;100242.09;;;3.98;100.00
45541;BME280;31265;49.680;8.608;2023-04-21T05:57:32;100237.34;;;3.79;100.00
45541;BME280;31265;49.680;8.608;2023-04-21T06:00:02;100243.22;;;3.89;100.00
45541;BME280;31265;49.680;8.608;2023-04-21T06:02:31;100249.16;;;3.93;100.00
45541;BME280;31265;49.680;8.608;2023-04-21T06:05:00;100243.03;;;4.06;100.00
45541;BME280;31265;49.680;8.608;2023-04-21T06:07:28;100259.34;;;4.17;100.00
45541;BME280;31265;49.680;8.608;2023-04-21T06:09:57;100252.53;;;4.24;100.00
45541;BME280;31265;49.680;8.608;2023-04-21T06:12:25;100255.03;;;4.41;100.00
45541;BME280;31265;49.680;8.608;2023-04-21T06:14:54;100261.28;;;4.41;100.00
45541;BME280;31265;49.680;8.608;2023-04-21T06:17:25;100257.06;;;4.40;100.00
45541;BME280;31265;49.680;8.608;2023-04-21T06:19:55;100269.16;;;4.50;100.00
45541;BME280;31265;49.680;8.608;2023-04-21T06:22:24;100262.97;;;4.63;100.00
45541;BME280;31265;49.680;8.608;2023-04-21T06:24:53;100264.72;;;4.80;100.00
45541;BME280;31265;49.680;8.608;2023-04-21T06:27:25;100263.97;;;4.79;100.00
45541;BME280;31265;49.680;8.608;2023-04-21T06:29:54;100270.00;;;4.78;100.00
45541;BME280;31265;49.680;8.608;2023-04-21T06:32:22;100271.25;;;4.77;100.00
45541;BME280;31265;49.680;8.608;2023-04-21T06:34:52;100272.16;;;4.85;100.00
45541;BME280;31265;49.680;8.608;2023-04-21T06:37:21;100282.22;;;4.95;100.00
45541;BME280;31265;49.680;8.608;2023-04-21T06:39:49;100287.69;;;5.14;100.00
45541;BME280;31265;49.680;8.608;2023-04-21T06:42:17;100288.56;;;5.36;100.00
45541;BME280;31265;49.680;8.608;2023-04-21T06:44:48;100286.59;;;5.50;100.00
45541;BME280;31265;49.680;8.608;2023-04-21T06:47:17;100290.50;;;5.54;100.00
45541;BME280;31265;49.680;8.608;2023-04-21T06:49:45;100289.03;;;5.80;100.00
45541;BME280;31265;49.680;8.608;2023-04-21T06:52:15;100286.94;;;5.99;100.00
45541;BME280;31265;49.680;8.608;2023-04-21T06:54:46;100279.06;;;6.17;100.00
45541;BME280;31265;49.680;8.608;2023-04-21T06:57:14;100270.84;;;6.38;100.00
45541;BME280;31265;49.680;8.608;2023-04-21T06:59:43;100262.41;;;6.70;100.00
45541;BME280;31265;49.680;8.608;2023-04-21T07:02:11;100264.06;;;6.73;100.00
45541;BME280;31265;49.680;8.608;2023-04-21T07:04:40;100265.53;;;6.74;100.00
45541;BME280;31265;49.680;8.608;2023-04-21T07:07:15;100277.75;;;7.00;100.00
45541;BME280;31265;49.680;8.608;2023-04-21T07:09:45;100284.19;;;7.23;100.00
45541;BME280;31265;49.680;8.608;2023-04-21T07:12:17;100283.97;;;7.42;100.00
45541;BME280;31265;49.680;8.608;2023-04-21T07:14:48;100276.72;;;7.60;100.00
45541;BME280;31265;49.680;8.608;2023-04-21T07:17:19;100279.06;;;7.85;100.00
45541;BME280;31265;49.680;8.608;2023-04-21T07:19:47;100270.34;;;8.09;100.00
45541;BME280;31265;49.680;8.608;2023-04-21T07:22:18;100274.44;;;8.16;100.00
45541;BME280;31265;49.680;8.608;2023-04-21T07:24:47;100267.09;;;8.18;100.00
45541;BME280;31265;49.680;8.608;2023-04-21T07:27:16;100277.75;;;8.14;100.00
45541;BME280;31265;49.680;8.608;2023-04-21T07:29:50;100272.88;;;8.36;100.00
45541;BME280;31265;49.680;8.608;2023-04-21T07:32:22;100269.66;;;8.16;100.00
45541;BME280;31265;49.680;8.608;2023-04-21T07:34:50;100272.97;;;8.15;100.00
45541;BME280;31265;49.680;8.608;2023-04-21T07:37:20;100267.34;;;8.36;100.00
45541;BME280;31265;49.680;8.608;2023-04-21T07:39:54;100267.94;;;8.50;100.00
45541;BME280;31265;49.680;8.608;2023-04-21T07:42:23;100268.38;;;8.92;100.00
45541;BME280;31265;49.680;8.608;2023-04-21T07:44:53;100260.28;;;9.40;100.00
45541;BME280;31265;49.680;8.608;2023-04-21T07:47:22;100260.81;;;9.31;100.00
45541;BME280;31265;49.680;8.608;2023-04-21T07:49:52;100264.13;;;9.22;100.00
45541;BME280;31265;49.680;8.608;2023-04-21T07:52:22;100263.56;;;9.46;100.00
45541;BME280;31265;49.680;8.608;2023-04-21T07:54:51;100269.19;;;9.95;100.00
45541;BME280;31265;49.680;8.608;2023-04-21T07:57:27;100271.78;;;9.93;100.00
45541;BME280;31265;49.680;8.608;2023-04-21T07:59:58;100266.88;;;10.16;100.00
45541;BME280;31265;49.680;8.608;2023-04-21T08:02:26;100276.91;;;10.04;100.00
45541;BME280;31265;49.680;8.608;2023-04-21T08:04:55;100273.50;;;9.80;100.00
45541;BME280;31265;49.680;8.608;2023-04-21T08:07:25;100287.53;;;9.82;100.00
45541;BME280;31265;49.680;8.608;2023-04-21T08:09:53;100277.69;;;9.97;100.00
45541;BME280;31265;49.680;8.608;2023-04-21T08:12:22;100271.47;;;10.37;100.00
45541;BME280;31265;49.680;8.608;2023-04-21T08:14:50;100278.19;;;10.59;100.00
45541;BME280;31265;49.680;8.608;2023-04-21T08:17:18;100276.13;;;10.92;100.00
45541;BME280;31265;49.680;8.608;2023-04-21T08:19:47;100267.88;;;11.27;100.00
45541;BME280;31265;49.680;8.608;2023-04-21T08:22:15;100265.50;;;11.83;100.00
45541;BME280;31265;49.680;8.608;2023-04-21T08:24:45;100256.25;;;12.15;100.00
45541;BME280;31265;49.680;8.608;2023-04-21T08:27:14;100249.22;;;12.14;100.00
45541;BME280;31265;49.680;8.608;2023-04-21T08:29:43;100241.88;;;12.09;100.00
45541;BME280;31265;49.680;8.608;2023-04-21T08:32:15;100243.81;;;12.43;100.00
45541;BME280;31265;49.680;8.608;2023-04-21T08:34:49;100251.25;;;12.68;100.00
45541;BME280;31265;49.680;8.608;2023-04-21T08:37:18;100247.31;;;13.08;100.00
45541;BME280;31265;49.680;8.608;2023-04-21T08:39:51;100247.22;;;13.25;100.00
45541;BME280;31265;49.680;8.608;2023-04-21T08:42:22;100243.44;;;13.50;100.00
45541;BME280;31265;49.680;8.608;2023-04-21T08:44:51;100247.88;;;13.53;100.00
45541;BME280;31265;49.680;8.608;2023-04-21T08:47:23;100234.16;;;13.18;100.00
45541;BME280;31265;49.680;8.608;2023-04-21T08:49:52;100232.16;;;12.55;100.00
45541;BME280;31265;49.680;8.608;2023-04-21T08:52:20;100226.66;;;13.11;100.00
45541;BME280;31265;49.680;8.608;2023-04-21T08:54:48;100224.50;;;13.29;100.00
45541;BME280;31265;49.680;8.608;2023-04-21T08:57:20;100225.69;;;13.94;100.00
45541;BME280;31265;49.680;8.608;2023-04-21T08:59:50;100232.78;;;13.85;100.00
45541;BME280;31265;49.680;8.608;2023-04-21T09:02:18;100221.13;;;14.18;100.00
45541;BME280;31265;49.680;8.608;2023-04-21T09:04:49;100224.00;;;14.49;100.00
45541;BME280;31265;49.680;8.608;2023-04-21T09:07:32;100222.66;;;14.60;100.00
45541;BME280;31265;49.680;8.608;2023-04-21T09:10:03;100220.41;;;15.42;100.00
45541;BME280;31265;49.680;8.608;2023-04-21T09:12:37;100220.69;;;15.68;100.00
45541;BME280;31265;49.680;8.608;2023-04-21T09:15:09;100219.91;;;16.22;100.00
45541;BME280;31265;49.680;8.608;2023-04-21T09:17:38;100223.09;;;16.40;100.00
45541;BME280;31265;49.680;8.608;2023-04-21T09:20:13;100220.75;;;15.15;100.00
45541;BME280;31265;49.680;8.608;2023-04-21T09:22:44;100218.69;;;15.59;100.00
45541;BME280;31265;49.680;8.608;2023-04-21T09:25:15;100211.16;;;15.61;100.00
45541;BME280;31265;49.680;8.608;2023-04-21T09:27:46;100213.03;;;16.02;100.00
45541;BME280;31265;49.680;8.608;2023-04-21T09:30:17;100202.59;;;16.14;100.00
45541;BME280;31265;49.680;8.608;2023-04-21T09:32:48;100210.22;;;16.70;100.00
45541;BME280;31265;49.680;8.608;2023-04-21T09:35:19;100209.81;;;16.41;100.00
45541;BME280;31265;49.680;8.608;2023-04-21T09:37:47;100198.53;;;16.62;100.00
45541;BME280;31265;49.680;8.608;2023-04-21T09:40:17;100192.78;;;17.07;94.65
45541;BME280;31265;49.680;8.608;2023-04-21T09:42:46;100200.47;;;16.60;100.00
45541;BME280;31265;49.680;8.608;2023-04-21T09:45:16;100199.13;;;16.96;99.52
45541;BME280;31265;49.680;8.608;2023-04-21T09:47:48;100201.25;;;17.33;97.21
45541;BME280;31265;49.680;8.608;2023-04-21T09:50:19;100198.84;;;17.65;93.98
45541;BME280;31265;49.680;8.608;2023-04-21T09:53:14;100187.81;;;17.43;96.65
45541;BME280;31265;49.680;8.608;2023-04-21T09:55:45;100187.72;;;17.67;83.08
45541;BME280;31265;49.680;8.608;2023-04-21T09:58:19;100186.50;;;17.32;88.45
45541;BME280;31265;49.680;8.608;2023-04-21T10:00:50;100178.38;;;17.88;81.53
45541;BME280;31265;49.680;8.608;2023-04-21T10:03:22;100177.69;;;18.68;77.68
45541;BME280;31265;49.680;8.608;2023-04-21T10:05:54;100179.13;;;18.41;83.13
45541;BME280;31265;49.680;8.608;2023-04-21T10:08:25;100172.06;;;18.40;83.23
45541;BME280;31265;49.680;8.608;2023-04-21T10:10:55;100173.97;;;19.05;80.08
45541;BME280;31265;49.680;8.608;2023-04-21T10:13:25;100165.78;;;19.39;77.97
45541;BME280;31265;49.680;8.608;2023-04-21T10:16:00;100163.47;;;18.78;81.57
45541;BME280;31265;49.680;8.608;2023-04-21T10:18:29;100160.56;;;18.76;84.45
45541;BME280;31265;49.680;8.608;2023-04-21T10:21:01;100161.84;;;19.16;77.43
45541;BME280;31265;49.680;8.608;2023-04-21T10:23:35;100165.09;;;19.10;76.57
45541;BME280;31265;49.680;8.608;2023-04-21T10:26:09;100158.16;;;18.98;78.16
45541;BME280;31265;49.680;8.608;2023-04-21T10:28:53;100153.22;;;18.29;84.38
45541;BME280;31265;49.680;8.608;2023-04-21T10:31:32;100151.78;;;18.56;82.92
45541;BME280;31265;49.680;8.608;2023-04-21T10:34:18;100142.16;;;18.05;89.54
45541;BME280;31265;49.680;8.608;2023-04-21T10:37:09;100148.69;;;17.96;97.29
45541;BME280;31265;49.680;8.608;2023-04-21T10:39:44;100150.63;;;18.33;95.18
45541;BME280;31265;49.680;8.608;2023-04-21T10:42:22;100144.19;;;18.58;92.64
45541;BME280;31265;49.680;8.608;2023-04-21T10:44:59;100143.38;;;18.97;92.12
45541;BME280;31265;49.680;8.608;2023-04-21T10:47:35;100142.53;;;18.67;90.11
45541;BME280;31265;49.680;8.608;2023-04-21T10:50:17;100131.28;;;18.95;95.87
45541;BME280;31265;49.680;8.608;2023-04-21T10:52:52;100126.38;;;19.09;95.48
45541;BME280;31265;49.680;8.608;2023-04-21T10:55:25;100121.81;;;19.91;83.62
45541;BME280;31265;49.680;8.608;2023-04-21T10:57:54;100116.06;;;19.89;84.07
45541;BME280;31265;49.680;8.608;2023-04-21T11:00:28;100111.69;;;19.40;84.91
45541;BME280;31265;49.680;8.608;2023-04-21T11:02:58;100104.16;;;19.45;83.26
45541;BME280;31265;49.680;8.608;2023-04-21T11:05:32;100109.19;;;19.46;87.06
45541;BME280;31265;49.680;8.608;2023-04-21T11:08:06;100115.72;;;19.81;80.18
45541;BME280;31265;49.680;8.608;2023-04-21T11:10:41;100105.81;;;19.80;78.24
45541;BME280;31265;49.680;8.608;2023-04-21T11:13:10;100100.19;;;19.20;77.57
45541;BME280;31265;49.680;8.608;2023-04-21T11:15:54;100097.13;;;17.64;88.78
45541;BME280;31265;49.680;8.608;2023-04-21T11:18:32;100089.88;;;17.47;89.26
45541;BME280;31265;49.680;8.608;2023-04-21T11:21:12;100082.94;;;16.73;97.85
45541;BME280;31265;49.680;8.608;2023-04-21T11:23:51;100086.09;;;17.29;100.00
45541;BME280;31265;49.680;8.608;2023-04-21T11:26:29;100079.84;;;17.56;97.10
45541;BME280;31265;49.680;8.608;2023-04-21T11:29:01;100071.31;;;16.18;100.00
45541;BME280;31265;49.680;8.608;2023-04-21T11:31:32;100071.81;;;16.99;100.00
45541;BME280;31265;49.680;8.608;2023-04-21T11:34:02;100062.19;;;17.28;100.00
45541;BME280;31265;49.680;8.608;2023-04-21T11:36:34;100064.31;;;17.41;100.00
45541;BME280;31265;49.680;8.608;2023-04-21T11:39:06;100063.31;;;17.48;99.56
45541;BME280;31265;49.680;8.608;2023-04-21T11:41:41;100070.13;;;18.38;96.07
45541;BME280;31265;49.680;8.608;2023-04-21T11:44:13;100065.38;;;19.27;87.68
45541;BME280;31265;49.680;8.608;2023-04-21T11:46:58;100064.09;;;18.16;94.24
45541;BME280;31265;49.680;8.608;2023-04-21T11:49:26;100061.59;;;18.50;93.23
45541;BME280;31265;49.680;8.608;2023-04-21T11:51:56;100063.06;;;18.23;96.66
45541;BME280;31265;49.680;8.608;2023-04-21T11:54:28;100064.47;;;18.52;94.56
45541;BME280;31265;49.680;8.608;2023-04-21T11:56:57;100063.09;;;18.94;87.79
45541;BME280;31265;49.680;8.608;2023-04-21T11:59:28;100059.03;;;20.04;79.94
45541;BME280;31265;49.680;8.608;2023-04-21T12:02:12;100067.84;;;20.62;78.49
45541;BME280;31265;49.680;8.608;2023-04-21T12:04:40;100062.81;;;20.43;75.43
45541;BME280;31265;49.680;8.608;2023-04-21T12:07:09;100070.66;;;19.35;80.44
45541;BME280;31265;49.680;8.608;2023-04-21T12:09:38;100061.41;;;19.32;81.28
45541;BME280;31265;49.680;8.608;2023-04-21T12:12:08;100054.84;;;19.28;81.75
45541;BME280;31265;49.680;8.608;2023-04-21T12:14:38;100055.19;;;19.20;82.85
45541;BME280;31265;49.680;8.608;2023-04-21T12:17:14;100051.13;;;19.23;80.48
45541;BME280;31265;49.680;8.608;2023-04-21T12:19:43;100046.03;;;19.97;77.32
45541;BME280;31265;49.680;8.608;2023-04-21T12:22:16;100046.19;;;20.33;78.07
45541;BME280;31265;49.680;8.608;2023-04-21T12:24:46;100038.44;;;19.84;81.51
45541;BME280;31265;49.680;8.608;2023-04-21T12:27:16;100049.56;;;20.29;79.83
45541;BME280;31265;49.680;8.608;2023-04-21T12:29:46;100050.25;;;19.96;83.35
45541;BME280;31265;49.680;8.608;2023-04-21T12:32:26;100039.09;;;19.52;76.88
45541;BME280;31265;49.680;8.608;2023-04-21T12:34:54;100035.28;;;19.46;79.00
45541;BME280;31265;49.680;8.608;2023-04-21T12:37:25;100043.59;;;19.28;83.26
45541;BME280;31265;49.680;8.608;2023-04-21T12:39:53;100041.22;;;19.22;83.44
45541;BME280;31265;49.680;8.608;2023-04-21T12:42:22;100041.66;;;19.62;79.13
45541;BME280;31265;49.680;8.608;2023-04-21T12:44:53;100044.59;;;19.96;79.00
45541;BME280;31265;49.680;8.608;2023-04-21T12:47:22;100049.28;;;19.44;78.86
45541;BME280;31265;49.680;8.608;2023-04-21T12:49:52;100043.59;;;19.28;79.35
45541;BME280;31265;49.680;8.608;2023-04-21T12:52:24;100035.16;;;19.28;83.96
45541;BME280;31265;49.680;8.608;2023-04-21T12:54:55;100043.78;;;19.32;81.95
45541;BME280;31265;49.680;8.608;2023-04-21T12:57:29;100032.97;;;19.72;76.46
45541;BME280;31265;49.680;8.608;2023-04-21T13:00:01;100028.41;;;19.49;77.63
45541;BME280;31265;49.680;8.608;2023-04-21T13:02:36;100018.59;;;19.50;82.68
45541;BME280;31265;49.680;8.608;2023-04-21T13:05:15;100021.13;;;18.55;82.67